Time;durP1;ratioP1;P1;durP2;ratioP2;P2;SDS_P1;SDS_P2;PMS_P1;PMS_P2;Temp;Humidity;BMP_temperature;BMP_pressure;BME280_temperature;BME280_humidity;BME280_pressure;Samples;Min_cycle;Max_cycle;Signal;HPM_P1;HPM_P2
2022/01/13 00:04:15;;;;;;;1263.75;895.20;;;5.80;99.90;;;;;;6148341;23;20527;-79
2022/01/13 00:21:42;;;;;;;1333.70;920.90;;;5.80;99.90;;;;;;6146089;23;20036;-79
2022/01/13 00:40:31;;;;;;;1315.88;879.47;;;5.70;99.90;;;;;;6143856;23;20029;-78
2022/01/13 01:27:07;;;;;;;1335.85;904.90;;;5.40;99.90;;;;;;6145630;23;20348;-78
2022/01/13 01:45:17;;;;;;;1399.28;932.50;;;5.20;99.90;;;;;;6085997;23;20049;-79
2022/01/13 02:02:34;;;;;;;1326.53;874.40;;;5.30;99.90;;;;;;6140315;23;20426;-78
2022/01/13 02:58:46;;;;;;;1417.82;960.53;;;5.30;99.90;;;;;;6117844;23;20073;-79
2022/01/13 03:23:10;;;;;;;1479.95;993.30;;;5.40;99.90;;;;;;6123358;23;20521;-83
2022/01/13 07:38:43;;;;;;;1432.00;999.90;;;6.00;99.90;;;;;;6145341;23;20064;-81
2022/01/13 07:41:09;;;;;;;1459.95;999.90;;;6.10;99.90;;;;;;6117772;23;20029;-81
2022/01/13 07:43:48;;;;;;;1438.60;999.90;;;6.00;99.90;;;;;;6119887;23;20018;-81
2022/01/13 07:46:14;;;;;;;1368.70;996.25;;;6.10;99.90;;;;;;6117942;23;20021;-81
2022/01/13 07:48:40;;;;;;;1360.70;998.58;;;6.60;99.90;;;;;;6121131;23;20017;-80
2022/01/13 07:51:06;;;;;;;1452.78;999.90;;;7.00;99.90;;;;;;6120161;23;20017;-80
2022/01/13 07:53:32;;;;;;;1448.03;999.90;;;6.10;99.90;;;;;;6120201;23;20152;-80
2022/01/13 08:03:22;;;;;;;1323.13;959.30;;;6.10;99.90;;;;;;6143684;23;20047;-80
2022/01/13 08:05:48;;;;;;;1331.35;941.92;;;6.10;99.90;;;;;;6120128;23;20033;-80
2022/01/13 08:08:13;;;;;;;1389.63;999.90;;;6.10;99.90;;;;;;6120220;23;20356;-80
2022/01/13 08:10:39;;;;;;;1386.47;998.20;;;6.10;99.90;;;;;;6120414;23;20014;-81
2022/01/13 08:13:04;;;;;;;1362.68;985.78;;;6.10;99.90;;;;;;6120766;23;20045;-81
2022/01/13 08:15:30;;;;;;;1382.57;991.88;;;6.20;99.90;;;;;;6118396;23;20538;-80
2022/01/13 08:20:40;;;;;;;1308.80;923.00;;;6.20;99.90;;;;;;6147488;23;20028;-76
2022/01/13 08:23:08;;;;;;;1440.93;986.20;;;6.20;99.90;;;;;;6122250;23;20068;-81
2022/01/13 08:25:34;;;;;;;1378.78;985.42;;;6.20;99.90;;;;;;6124158;23;20374;-80
2022/01/13 08:28:00;;;;;;;1365.70;987.97;;;6.20;99.90;;;;;;6123204;23;20022;-79
2022/01/13 08:30:25;;;;;;;1382.72;996.17;;;6.30;99.90;;;;;;6121234;23;20017;-80
2022/01/13 08:32:51;;;;;;;1387.68;999.90;;;6.30;99.90;;;;;;6123512;23;20036;-80
2022/01/13 08:35:17;;;;;;;1417.68;999.90;;;6.30;99.90;;;;;;6122898;23;20053;-79
2022/01/13 08:37:43;;;;;;;1402.13;999.90;;;6.30;99.90;;;;;;6124389;23;20100;-79
2022/01/13 08:40:11;;;;;;;1415.80;999.90;;;6.30;99.90;;;;;;6123676;23;20498;-79
2022/01/13 08:42:37;;;;;;;1396.55;999.90;;;6.30;99.90;;;;;;6123890;23;20025;-80
2022/01/13 08:45:05;;;;;;;1399.55;978.80;;;6.30;99.90;;;;;;6122579;23;20390;-83
2022/01/13 08:47:31;;;;;;;1377.45;999.58;;;6.30;99.90;;;;;;6122549;23;20092;-80
2022/01/13 08:49:57;;;;;;;1434.68;999.90;;;6.30;99.90;;;;;;6123227;23;20049;-80
2022/01/13 08:52:24;;;;;;;1287.18;928.65;;;6.30;99.90;;;;;;6121968;23;20017;-80
2022/01/13 08:54:51;;;;;;;1392.78;999.90;;;6.30;99.90;;;;;;6124085;23;20068;-80
2022/01/13 08:57:17;;;;;;;1393.72;998.17;;;6.30;99.90;;;;;;6123270;23;20017;-80
2022/01/13 08:59:45;;;;;;;1376.28;998.35;;;6.30;99.90;;;;;;6120935;23;20092;-81
2022/01/13 09:02:10;;;;;;;1441.05;999.90;;;6.30;99.90;;;;;;6121971;23;20343;-80
2022/01/13 09:04:36;;;;;;;1439.22;999.90;;;6.20;99.90;;;;;;6122691;23;20028;-79
2022/01/13 09:07:02;;;;;;;1437.63;999.90;;;6.20;99.90;;;;;;6120122;23;20021;-80
2022/01/13 09:09:27;;;;;;;1319.47;966.42;;;6.20;99.90;;;;;;6122601;23;20025;-80
2022/01/13 09:11:53;;;;;;;1436.90;999.90;;;6.20;99.90;;;;;;6123536;23;20014;-81
2022/01/13 09:14:24;;;;;;;1440.25;999.90;;;6.30;99.90;;;;;;6121617;23;20033;-81
2022/01/13 09:16:50;;;;;;;1424.43;999.90;;;6.20;99.90;;;;;;6124233;23;20327;-81
2022/01/13 09:19:18;;;;;;;1391.82;999.90;;;6.20;99.90;;;;;;6123114;23;20024;-81
2022/01/13 09:21:45;;;;;;;1375.90;988.53;;;6.30;99.90;;;;;;6124026;23;20350;-80
2022/01/13 09:24:13;;;;;;;1343.47;974.85;;;6.20;99.90;;;;;;6123472;23;20018;-80
2022/01/13 09:26:40;;;;;;;1343.30;974.60;;;6.20;99.90;;;;;;6123355;23;20021;-80
2022/01/13 09:29:07;;;;;;;1386.10;999.90;;;6.20;99.90;;;;;;6144918;23;20036;-80
2022/01/13 09:31:35;;;;;;;1392.22;993.53;;;6.20;99.90;;;;;;6123587;23;20430;-81
2022/01/13 09:34:02;;;;;;;1330.75;938.22;;;6.20;99.90;;;;;;6120613;23;20104;-81
2022/01/13 09:36:28;;;;;;;1359.88;992.60;;;6.30;99.90;;;;;;6122244;23;20100;-80
2022/01/13 09:38:54;;;;;;;1361.57;994.88;;;6.30;99.90;;;;;;6114555;23;20028;-80
2022/01/13 09:41:22;;;;;;;1385.97;984.85;;;6.30;99.90;;;;;;6118161;23;20022;-79
2022/01/13 09:43:48;;;;;;;1374.75;995.10;;;6.30;99.90;;;;;;6115847;23;20102;-80
2022/01/13 09:46:13;;;;;;;1309.45;933.28;;;6.30;99.90;;;;;;6116037;23;20036;-81
2022/01/13 09:48:41;;;;;;;1400.93;999.90;;;6.30;99.90;;;;;;6117284;23;20343;-81
2022/01/13 09:51:07;;;;;;;1352.50;970.45;;;6.30;99.90;;;;;;6116588;23;20221;-79
2022/01/13 09:53:33;;;;;;;1414.40;999.90;;;6.30;99.90;;;;;;6114186;23;20021;-82
2022/01/13 09:55:59;;;;;;;1411.47;999.90;;;6.30;99.90;;;;;;6091903;23;20458;-83
2022/01/13 09:58:44;;;;;;;1420.32;999.90;;;6.30;99.90;;;;;;6114401;23;20115;-82
2022/01/13 10:01:13;;;;;;;1419.38;999.90;;;6.30;99.90;;;;;;6093994;23;20018;-82
2022/01/13 10:03:39;;;;;;;1410.22;999.90;;;6.30;99.90;;;;;;6094258;23;20014;-82
2022/01/13 10:06:11;;;;;;;1409.75;999.90;;;8.10;99.90;;;;;;6094025;23;20142;-82
2022/01/13 10:08:49;;;;;;;1369.15;999.90;;;6.30;99.90;;;;;;6092411;23;20053;-82
2022/01/13 10:11:48;;;;;;;1332.43;934.20;;;6.30;99.90;;;;;;6094608;23;20018;-82
2022/01/13 10:17:00;;;;;;;1347.18;984.22;;;6.30;99.90;;;;;;6117385;23;20053;-80
2022/01/13 10:19:30;;;;;;;1348.70;975.03;;;6.40;99.90;;;;;;6092249;23;20021;-81
2022/01/13 10:22:20;;;;;;;1354.95;988.30;;;6.30;99.90;;;;;;6093164;23;20502;-80
2022/01/13 10:24:54;;;;;;;1427.15;999.90;;;6.30;99.90;;;;;;6078331;23;20052;-80
2022/01/13 10:27:22;;;;;;;1405.18;999.90;;;6.30;99.90;;;;;;6093972;23;20026;-82
2022/01/13 10:30:14;;;;;;;1376.30;994.50;;;6.30;99.90;;;;;;6093828;23;20033;-81
2022/01/13 10:32:41;;;;;;;1397.28;999.90;;;6.30;99.90;;;;;;6093942;23;20018;-83
2022/01/13 10:35:10;;;;;;;1447.35;999.90;;;6.30;99.90;;;;;;6093379;23;20022;-82
2022/01/13 10:37:40;;;;;;;1347.40;982.50;;;6.30;99.90;;;;;;6095001;23;20481;-82
2022/01/13 10:40:11;;;;;;;1402.88;999.90;;;6.30;99.90;;;;;;6110501;23;20549;-82
2022/01/13 10:48:03;;;;;;;1483.00;999.90;;;6.30;99.90;;;;;;6125484;23;20026;-81
2022/01/13 11:02:32;;;;;;;1432.15;999.90;;;6.40;99.90;;;;;;6143388;23;20033;-81
2022/01/13 11:05:04;;;;;;;1374.75;999.90;;;6.40;99.90;;;;;;6119201;23;20434;-81
2022/01/13 11:07:30;;;;;;;1407.50;998.58;;;6.40;99.90;;;;;;6119924;23;20040;-81
2022/01/13 11:10:06;;;;;;;1336.30;950.03;;;6.40;99.90;;;;;;6122999;23;20146;-81
2022/01/13 11:12:37;;;;;;;1426.07;999.90;;;6.40;99.90;;;;;;6128900;23;20014;-80
2022/01/13 11:15:07;;;;;;;1362.27;979.83;;;6.50;99.90;;;;;;6128199;23;20021;-80
2022/01/13 11:17:37;;;;;;;1391.65;996.92;;;6.50;99.90;;;;;;6127308;23;20014;-81
2022/01/13 11:20:17;;;;;;;1348.68;978.75;;;6.50;99.90;;;;;;6128585;23;20191;-81
2022/01/13 11:22:45;;;;;;;1335.72;974.75;;;6.50;99.90;;;;;;6129125;23;20095;-81
2022/01/13 11:25:15;;;;;;;1291.13;934.00;;;6.50;99.90;;;;;;6129953;23;20033;-80
2022/01/13 11:27:42;;;;;;;1320.32;963.20;;;6.50;99.90;;;;;;6128659;23;20232;-80
2022/01/13 11:30:15;;;;;;;1325.72;966.95;;;6.40;99.90;;;;;;6128149;23;20044;-81
2022/01/13 11:32:43;;;;;;;1396.03;998.42;;;7.10;99.90;;;;;;6125562;23;20017;-83
2022/01/13 11:35:12;;;;;;;1379.20;999.67;;;6.50;99.90;;;;;;6124425;23;20415;-82
2022/01/13 11:37:41;;;;;;;1352.47;975.67;;;6.60;99.90;;;;;;6124340;23;20286;-81
2022/01/13 11:40:25;;;;;;;1405.32;999.90;;;6.60;99.90;;;;;;6122577;23;20455;-80
2022/01/13 11:42:51;;;;;;;1396.03;994.75;;;6.60;99.90;;;;;;6123795;23;20018;-80
2022/01/13 11:45:20;;;;;;;1304.93;930.95;;;6.60;99.90;;;;;;6122427;23;20013;-80
2022/01/13 11:47:46;;;;;;;1363.97;987.15;;;8.80;99.90;;;;;;6125369;23;20370;-81
2022/01/13 11:50:23;;;;;;;1344.10;956.72;;;6.60;99.90;;;;;;6124906;23;20111;-81
2022/01/13 11:52:53;;;;;;;1343.60;956.75;;;6.60;99.90;;;;;;6124142;23;20017;-81
2022/01/13 11:55:20;;;;;;;1343.60;967.42;;;6.30;99.90;;;;;;6124590;23;20025;-81
2022/01/13 11:57:45;;;;;;;1332.78;951.05;;;6.70;99.90;;;;;;6123300;23;20021;-80
2022/01/13 12:00:32;;;;;;;1340.75;922.45;;;6.60;99.90;;;;;;6122454;23;20018;-80
2022/01/13 12:03:25;;;;;;;1411.47;999.90;;;6.60;99.90;;;;;;6120890;23;20359;-81
2022/01/13 12:05:59;;;;;;;1411.25;999.90;;;6.70;99.90;;;;;;6124256;23;20013;-81
2022/01/13 12:08:54;;;;;;;1400.03;999.15;;;6.70;99.90;;;;;;6121573;23;20021;-79
2022/01/13 12:11:38;;;;;;;1393.63;999.35;;;6.70;99.90;;;;;;6118976;23;20438;-81
2022/01/13 12:14:22;;;;;;;1339.50;977.55;;;6.70;99.90;;;;;;6121087;23;20406;-81
2022/01/13 12:17:05;;;;;;;1256.00;882.55;;;6.70;99.90;;;;;;6122088;23;20515;-80
2022/01/13 12:19:47;;;;;;;1355.03;990.00;;;6.70;99.90;;;;;;6122560;23;20480;-80
2022/01/13 12:22:33;;;;;;;1398.75;999.90;;;6.70;99.90;;;;;;6123701;23;20014;-80
2022/01/13 12:25:00;;;;;;;1282.07;929.53;;;6.70;99.90;;;;;;6122452;23;20096;-79
2022/01/13 12:27:44;;;;;;;1388.68;999.90;;;7.00;99.90;;;;;;6119728;23;20025;-80
2022/01/13 12:30:15;;;;;;;1460.55;999.90;;;6.70;99.90;;;;;;6149840;23;20005;-79
2022/01/13 12:32:42;;;;;;;1378.95;996.53;;;6.70;99.90;;;;;;6124421;23;20450;-80
2022/01/13 12:35:11;;;;;;;1250.60;885.92;;;6.80;99.90;;;;;;6120251;23;20080;-83
2022/01/13 12:37:39;;;;;;;1285.30;857.42;;;6.70;99.90;;;;;;6124020;23;20025;-79
2022/01/13 12:40:08;;;;;;;1346.57;938.08;;;6.70;99.90;;;;;;6124443;23;20014;-80
2022/01/13 12:42:52;;;;;;;1329.63;977.67;;;6.80;99.90;;;;;;6123678;23;20017;-78
2022/01/13 12:45:31;;;;;;;1359.40;986.55;;;6.80;99.90;;;;;;6124421;23;20044;-78
2022/01/13 12:48:00;;;;;;;1383.35;999.90;;;6.90;99.90;;;;;;6129585;23;20035;-79
2022/01/13 12:50:26;;;;;;;1278.05;902.70;;;6.90;99.90;;;;;;6127231;23;20018;-80
2022/01/13 12:52:55;;;;;;;1381.88;995.80;;;7.10;99.90;;;;;;6124215;23;20084;-79
2022/01/13 12:55:21;;;;;;;1314.22;943.70;;;6.90;99.90;;;;;;6149394;23;20113;-80
2022/01/13 12:57:52;;;;;;;1315.95;953.90;;;7.20;99.90;;;;;;6148351;23;20029;-79
2022/01/13 13:00:20;;;;;;;1312.88;954.30;;;7.00;99.90;;;;;;6119874;23;20411;-81
2022/01/13 13:02:55;;;;;;;1355.72;955.28;;;7.00;99.90;;;;;;6120307;23;20092;-80
2022/01/13 13:05:29;;;;;;;1276.35;872.58;;;7.00;99.90;;;;;;6123164;23;20018;-80
2022/01/13 13:07:55;;;;;;;1380.57;968.92;;;7.10;99.90;;;;;;6122000;23;20014;-79
2022/01/13 13:10:20;;;;;;;1317.30;942.60;;;7.10;99.90;;;;;;6122709;23;20091;-80
2022/01/13 13:12:53;;;;;;;1344.93;964.17;;;7.10;99.90;;;;;;6122136;23;20028;-79
2022/01/13 13:17:49;;;;;;;1288.30;929.50;;;7.20;99.90;;;;;;6148065;23;20079;-80
2022/01/13 13:20:31;;;;;;;1284.68;920.97;;;7.20;99.90;;;;;;6150903;23;20017;-80
2022/01/13 13:23:00;;;;;;;1313.90;936.28;;;7.20;99.90;;;;;;6124000;23;20013;-80
2022/01/13 13:25:44;;;;;;;1429.80;999.90;;;7.30;99.90;;;;;;6121545;23;20088;-80
2022/01/13 13:28:32;;;;;;;1257.60;854.75;;;7.30;99.90;;;;;;6121453;23;20014;-80
2022/01/13 13:31:07;;;;;;;1323.38;896.40;;;7.30;99.90;;;;;;6119396;23;20437;-80
2022/01/13 13:33:36;;;;;;;1331.82;942.30;;;7.30;99.90;;;;;;6150012;23;20125;-84
2022/01/13 13:36:11;;;;;;;1257.40;803.25;;;7.30;99.90;;;;;;6124386;23;20100;-80
2022/01/13 13:38:52;;;;;;;1301.07;928.53;;;7.40;99.90;;;;;;6121642;23;20438;-79
2022/01/13 13:41:24;;;;;;;1322.63;909.20;;;7.40;99.90;;;;;;6124545;23;20461;-80
2022/01/13 13:43:52;;;;;;;1286.45;914.78;;;7.40;99.90;;;;;;6121452;23;20021;-80
2022/01/13 13:46:18;;;;;;;1233.40;801.03;;;7.40;99.90;;;;;;6123957;23;20013;-80
2022/01/13 13:48:45;;;;;;;1189.18;827.47;;;7.40;99.90;;;;;;6123893;23;20045;-79
2022/01/13 13:51:37;;;;;;;1247.82;865.47;;;7.40;99.90;;;;;;6123452;23;20017;-80
2022/01/13 13:54:07;;;;;;;1180.32;769.67;;;7.50;99.90;;;;;;6116700;23;20040;-80
2022/01/13 13:56:45;;;;;;;1234.65;846.28;;;7.50;99.90;;;;;;6123215;23;20022;-80
2022/01/13 13:59:16;;;;;;;1324.22;910.90;;;7.50;99.90;;;;;;6121177;23;20091;-80
2022/01/13 14:01:42;;;;;;;1225.30;828.20;;;7.80;99.90;;;;;;6121616;23;20105;-79
2022/01/13 14:04:09;;;;;;;1209.20;801.10;;;7.50;99.90;;;;;;6146340;23;20517;-79
2022/01/13 14:06:43;;;;;;;1128.20;673.17;;;7.50;99.90;;;;;;6121280;23;20018;-79
2022/01/13 14:09:11;;;;;;;1151.63;633.28;;;7.50;99.90;;;;;;6123606;23;20025;-80
2022/01/13 14:11:45;;;;;;;1145.05;720.03;;;7.50;99.90;;;;;;6122593;23;20029;-79
2022/01/13 14:14:12;;;;;;;1301.15;859.75;;;7.50;99.90;;;;;;6118884;23;20018;-80
2022/01/13 14:16:38;;;;;;;1147.55;725.25;;;7.50;99.90;;;;;;6121214;23;20013;-80
2022/01/13 14:19:09;;;;;;;1327.10;869.25;;;7.50;99.90;;;;;;6123920;23;20057;-80
2022/01/13 14:21:51;;;;;;;1176.30;699.80;;;7.50;99.90;;;;;;6122926;23;20017;-84
2022/01/13 14:24:51;;;;;;;1274.32;828.95;;;7.50;99.90;;;;;;6150486;23;20096;-80
2022/01/13 14:27:17;;;;;;;1256.53;870.38;;;7.50;99.90;;;;;;6045938;23;20084;-80
2022/01/13 14:29:50;;;;;;;1199.30;841.53;;;7.50;99.90;;;;;;6121931;23;20025;-79
2022/01/13 14:32:21;;;;;;;1226.55;765.90;;;7.50;99.90;;;;;;6120754;23;20375;-80
2022/01/13 14:34:55;;;;;;;1290.95;904.45;;;7.50;99.90;;;;;;6121776;23;20403;-80
2022/01/13 14:37:24;;;;;;;1187.35;793.10;;;7.50;99.90;;;;;;6122012;23;20067;-81
2022/01/13 14:40:12;;;;;;;1141.82;716.85;;;7.50;99.90;;;;;;6123290;23;20013;-80
2022/01/13 14:42:39;;;;;;;1134.75;682.63;;;7.50;99.90;;;;;;6120466;23;20052;-80
2022/01/13 14:45:34;;;;;;;1156.03;736.65;;;8.30;99.90;;;;;;6120549;23;20096;-80
2022/01/13 14:48:00;;;;;;;1251.35;781.78;;;7.50;99.90;;;;;;6115003;23;20030;-80
2022/01/13 14:50:25;;;;;;;1203.32;762.72;;;7.50;99.90;;;;;;6122258;23;20210;-80
2022/01/13 14:52:52;;;;;;;1316.47;847.97;;;7.50;99.90;;;;;;6148285;23;20030;-80
2022/01/13 14:55:19;;;;;;;1320.53;967.10;;;7.50;99.90;;;;;;6149054;23;20107;-82
2022/01/13 14:57:45;;;;;;;1146.60;722.53;;;7.50;99.90;;;;;;6123838;23;20017;-81
2022/01/13 15:00:12;;;;;;;1308.70;851.42;;;7.50;99.90;;;;;;6121251;23;20088;-81
2022/01/13 15:02:37;;;;;;;1276.03;899.28;;;7.50;99.90;;;;;;6143893;23;20022;-81
2022/01/13 15:05:04;;;;;;;1301.07;849.08;;;7.50;99.90;;;;;;6119927;23;20335;-80
2022/01/13 15:07:29;;;;;;;1216.07;823.45;;;7.50;99.90;;;;;;6123945;23;20088;-80
2022/01/13 15:09:55;;;;;;;1160.38;748.17;;;7.50;99.90;;;;;;6120352;23;20013;-80
2022/01/13 15:12:20;;;;;;;1287.38;832.63;;;7.50;99.90;;;;;;6120891;23;20105;-79
2022/01/13 15:14:46;;;;;;;1416.45;999.90;;;7.50;99.90;;;;;;6122695;23;20422;-81
2022/01/13 15:17:12;;;;;;;1362.28;964.17;;;7.50;99.90;;;;;;6120298;23;20026;-81
2022/01/13 15:19:41;;;;;;;1311.72;939.45;;;7.40;99.90;;;;;;6120112;23;20319;-81
2022/01/13 15:22:06;;;;;;;1337.95;973.45;;;7.40;99.90;;;;;;6121796;23;20021;-81
2022/01/13 15:24:32;;;;;;;1392.57;999.90;;;7.40;99.90;;;;;;6122678;23;20024;-81
2022/01/13 15:26:58;;;;;;;1346.72;977.53;;;7.60;99.90;;;;;;6119999;23;20029;-81
2022/01/13 15:29:23;;;;;;;1316.75;950.55;;;7.40;99.90;;;;;;6118852;23;20014;-81
2022/01/13 15:31:49;;;;;;;1240.55;877.28;;;7.30;99.90;;;;;;6117119;23;20024;-81
2022/01/13 15:34:25;;;;;;;1236.20;865.08;;;7.30;99.90;;;;;;6119831;23;20088;-81
2022/01/13 15:36:51;;;;;;;1371.25;971.35;;;7.30;99.90;;;;;;6120073;23;20033;-81
2022/01/13 15:39:17;;;;;;;1241.28;848.72;;;7.30;99.90;;;;;;6122042;23;20018;-82
2022/01/13 15:41:42;;;;;;;1291.85;775.08;;;7.20;99.90;;;;;;6123568;23;20021;-80
2022/01/13 15:44:08;;;;;;;1183.82;768.85;;;7.20;99.90;;;;;;6151327;23;20009;-80
2022/01/13 15:46:34;;;;;;;1278.75;895.28;;;7.80;99.90;;;;;;6127123;23;20026;-80
2022/01/13 15:48:59;;;;;;;1152.38;742.75;;;7.20;99.90;;;;;;6126130;23;20160;-80
2022/01/13 15:51:27;;;;;;;1177.20;777.70;;;8.00;99.90;;;;;;6124066;23;20392;-80
2022/01/13 15:53:53;;;;;;;1199.20;686.28;;;7.20;99.90;;;;;;6125743;23;20458;-80
2022/01/13 15:56:19;;;;;;;1202.88;656.63;;;8.00;99.90;;;;;;6126811;23;20017;-79
2022/01/13 15:58:45;;;;;;;1090.72;556.88;;;7.10;99.90;;;;;;6154715;23;20021;-81
2022/01/13 16:01:24;;;;;;;;;;;;;;;;;;;;;
2022/01/13 16:03:50;;;;;;;1105.93;594.60;;;7.10;99.90;;;;;;6118564;23;20056;-81
2022/01/13 16:06:17;;;;;;;1070.93;502.35;;;7.10;99.90;;;;;;6120838;23;20017;-81
2022/01/13 16:08:42;;;;;;;1043.70;472.83;;;7.10;99.90;;;;;;6120652;23;20032;-81
2022/01/13 16:11:09;;;;;;;1033.05;449.13;;;7.10;99.90;;;;;;6121040;23;20124;-81
2022/01/13 16:13:41;;;;;;;1337.22;985.28;;;7.10;99.90;;;;;;6121737;23;20025;-81
2022/01/13 16:16:07;;;;;;;1326.30;955.45;;;7.10;99.90;;;;;;6118736;23;20402;-81
2022/01/13 16:18:32;;;;;;;1119.97;708.20;;;7.40;99.90;;;;;;6123455;23;20120;-83
2022/01/13 16:20:58;;;;;;;1310.38;946.63;;;8.60;99.90;;;;;;6124379;23;20307;-81
2022/01/13 16:23:24;;;;;;;1167.90;794.95;;;7.80;99.90;;;;;;6124984;23;20024;-81
2022/01/13 16:25:49;;;;;;;1357.05;986.47;;;7.00;99.90;;;;;;6148656;23;20017;-81
2022/01/13 16:28:15;;;;;;;1257.22;921.42;;;7.10;99.90;;;;;;6117946;23;20018;-79
2022/01/13 16:30:41;;;;;;;1287.75;924.00;;;7.40;99.90;;;;;;6119305;23;20045;-80
2022/01/13 16:33:06;;;;;;;1215.88;815.88;;;7.80;99.90;;;;;;6121419;23;20047;-80
2022/01/13 16:35:33;;;;;;;1103.78;683.75;;;7.10;99.90;;;;;;6119094;23;20493;-81
2022/01/13 16:38:01;;;;;;;1143.07;766.38;;;7.00;99.90;;;;;;6123621;23;20126;-81
2022/01/13 16:40:35;;;;;;;1233.10;891.58;;;7.00;99.90;;;;;;6147818;23;20434;-81
2022/01/13 16:43:03;;;;;;;1360.15;991.03;;;8.30;99.90;;;;;;6150275;23;20048;-80
2022/01/13 16:45:32;;;;;;;1342.80;982.28;;;7.00;99.90;;;;;;6121222;23;20399;-81
2022/01/13 16:47:58;;;;;;;1169.90;790.45;;;6.90;99.90;;;;;;6150318;23;20044;-81
2022/01/13 16:50:25;;;;;;;1247.80;906.03;;;7.50;99.90;;;;;;6123318;23;20025;-80
2022/01/13 16:52:51;;;;;;;1108.82;687.30;;;6.90;99.90;;;;;;6122759;23;20025;-80
2022/01/13 16:55:21;;;;;;;1035.47;563.85;;;7.90;99.90;;;;;;6146572;23;20056;-81
2022/01/13 16:57:47;;;;;;;1202.10;781.67;;;6.90;99.90;;;;;;6121287;23;20783;-80
2022/01/13 17:00:15;;;;;;;1272.13;921.70;;;7.10;99.90;;;;;;6119065;23;20129;-81
2022/01/13 17:02:42;;;;;;;1216.70;807.97;;;6.40;99.90;;;;;;6122714;23;20029;-81
2022/01/13 17:05:08;;;;;;;1125.65;711.55;;;7.20;99.90;;;;;;6119097;23;20017;-81
2022/01/13 17:07:35;;;;;;;1398.85;999.90;;;6.90;99.90;;;;;;6148676;23;20075;-81
2022/01/13 17:10:01;;;;;;;1344.93;982.40;;;6.80;99.90;;;;;;6119040;23;20577;-82
2022/01/13 17:12:27;;;;;;;1209.40;831.13;;;7.50;99.90;;;;;;6120199;23;20052;-80
2022/01/13 17:14:55;;;;;;;1308.18;939.55;;;7.80;99.90;;;;;;6116001;23;20395;-80
2022/01/13 17:17:21;;;;;;;1315.72;934.50;;;6.80;99.90;;;;;;6118270;23;20052;-80
2022/01/13 17:19:49;;;;;;;1269.90;810.03;;;7.40;99.90;;;;;;6119254;23;20437;-80
2022/01/13 17:22:15;;;;;;;1291.93;916.22;;;6.80;99.90;;;;;;6121253;23;20048;-80
2022/01/13 17:24:41;;;;;;;1355.07;985.78;;;6.90;99.90;;;;;;6123211;23;20399;-82
2022/01/13 17:27:07;;;;;;;1371.15;997.85;;;6.90;99.90;;;;;;6120229;23;20037;-81
2022/01/13 17:29:32;;;;;;;1358.88;987.53;;;7.50;99.90;;;;;;6120017;23;20149;-81
2022/01/13 17:31:58;;;;;;;1404.53;999.90;;;6.90;99.90;;;;;;6120721;23;20006;-81
2022/01/13 17:34:24;;;;;;;1306.47;947.90;;;6.80;99.90;;;;;;6121209;23;20079;-80
2022/01/13 17:36:50;;;;;;;1347.60;971.78;;;7.70;99.90;;;;;;6120868;23;20105;-80
2022/01/13 17:39:19;;;;;;;1358.07;979.83;;;6.80;99.90;;;;;;6121008;23;20018;-81
2022/01/13 17:41:49;;;;;;;1332.53;948.28;;;6.80;99.90;;;;;;6120946;23;20619;-80
2022/01/13 17:44:17;;;;;;;1357.18;969.35;;;6.80;99.90;;;;;;6119489;23;20017;-81
2022/01/13 17:46:43;;;;;;;1279.47;916.47;;;7.60;99.90;;;;;;6121664;23;20024;-81
2022/01/13 17:49:09;;;;;;;1361.60;990.28;;;6.80;99.90;;;;;;6122214;23;20017;-80
2022/01/13 17:51:38;;;;;;;1395.57;998.25;;;6.70;99.90;;;;;;6122479;23;20022;-81
2022/01/13 19:06:59;;;;;;;1469.63;931.20;;;6.30;99.90;;;;;;6056592;23;20053;-80
2022/01/13 19:09:28;;;;;;;1436.57;919.00;;;5.10;99.90;;;;;;6030169;23;20042;-80
2022/01/13 19:11:55;;;;;;;1367.63;857.88;;;5.50;99.90;;;;;;6029728;23;20019;-80
2022/01/13 19:14:33;;;;;;;1482.47;949.05;;;5.80;99.90;;;;;;6008702;23;20515;-79
2022/01/13 19:17:19;;;;;;;1398.22;907.13;;;7.30;99.90;;;;;;6031281;23;20019;-80
2022/01/13 19:23:26;;;;;;;1371.30;835.53;;;5.40;99.90;;;;;;6057555;23;20222;-79
2022/01/13 19:51:46;;;;;;;1360.15;841.03;;;5.10;99.90;;;;;;6147246;23;20103;-79
2022/01/13 20:19:12;;;;;;;1361.22;839.63;;;5.40;99.90;;;;;;6146417;23;20025;-81
2022/01/13 20:21:39;;;;;;;1387.63;865.25;;;6.40;99.90;;;;;;6120940;23;20029;-79
2022/01/13 21:58:02;;;;;;;1348.70;894.28;;;5.70;99.90;;;;;;6147359;23;20143;-79
2022/01/13 22:21:10;;;;;;;1274.72;878.78;;;5.70;99.90;;;;;;6114084;23;20037;-79
2022/01/13 22:23:37;;;;;;;1374.50;988.85;;;5.80;99.90;;;;;;6091042;23;20041;-80
2022/01/13 22:26:03;;;;;;;1356.95;967.83;;;5.70;99.90;;;;;;6090511;23;20026;-79
2022/01/13 22:28:29;;;;;;;1345.13;948.47;;;5.80;99.90;;;;;;6089552;23;20459;-79
